Time;durP1;ratioP1;P1;durP2;ratioP2;P2;SDS_P1;SDS_P2;PMS_P1;PMS_P2;Temp;Humidity;BMP_temperature;BMP_pressure;BME280_temperature;BME280_humidity;BME280_pressure;Samples;Min_cycle;Max_cycle;Signal;HPM_P1;HPM_P2
2023/11/08 00:00:08;;;;;;;11.90;5.50;;;;;;;7.01;84.18;98750.98;106005;1254;61090;-26
2023/11/08 00:02:41;;;;;;;10.10;5.50;;;;;;;6.82;85.62;98756.10;105745;1258;73858;-26
2023/11/08 00:05:08;;;;;;;11.20;5.70;;;;;;;6.63;86.51;98756.65;105738;1251;74512;-26
2023/11/08 00:07:35;;;;;;;12.40;6.10;;;;;;;6.48;87.41;98753.92;105963;1251;72601;-26
2023/11/08 00:10:02;;;;;;;8.60;4.00;;;;;;;6.34;88.20;98755.24;105920;1251;62045;-26
2023/11/08 00:12:30;;;;;;;9.50;4.90;;;;;;;6.84;86.96;98762.11;105989;1254;61774;-26
2023/11/08 00:14:57;;;;;;;12.80;5.30;;;;;;;7.38;84.51;98752.29;105907;1250;73824;-27
2023/11/08 00:17:25;;;;;;;11.90;5.50;;;;;;;7.48;83.58;98752.27;106005;1251;74320;-26
2023/11/08 00:19:54;;;;;;;11.10;5.00;;;;;;;7.30;82.99;98745.39;106052;1251;72739;-26
2023/11/08 00:22:21;;;;;;;12.80;6.40;;;;;;;7.04;82.84;98742.95;106014;1254;61097;-27
2023/11/08 00:24:48;;;;;;;11.50;5.80;;;;;;;6.77;83.28;98743.80;106015;1251;61170;-27
2023/11/08 00:27:15;;;;;;;12.90;5.80;;;;;;;6.50;84.78;98739.46;106007;1251;73533;-27
2023/11/08 00:29:42;;;;;;;7.70;3.60;;;;;;;6.29;85.17;98736.41;106015;1252;74280;-27
2023/11/08 00:32:09;;;;;;;8.60;4.60;;;;;;;6.67;84.60;98735.88;105919;1254;73326;-27
2023/11/08 00:34:37;;;;;;;8.60;4.70;;;;;;;7.13;83.05;98730.59;105846;1253;61153;-27
2023/11/08 00:37:04;;;;;;;7.20;4.50;;;;;;;7.10;82.21;98728.90;105975;1254;62169;-27
2023/11/08 00:39:31;;;;;;;8.00;4.50;;;;;;;6.83;82.75;98728.08;105963;1251;72406;-27
2023/11/08 00:41:58;;;;;;;7.70;4.60;;;;;;;6.51;83.90;98727.19;105936;1251;74835;-27
2023/11/08 00:44:25;;;;;;;9.70;5.70;;;;;;;6.23;84.68;98733.43;105960;1251;72638;-26
2023/11/08 00:46:54;;;;;;;12.20;4.20;;;;;;;5.99;86.27;98729.98;105942;1251;61863;-27
2023/11/08 00:49:21;;;;;;;8.70;5.60;;;;;;;6.37;86.65;98735.22;105891;1256;61103;-25
2023/11/08 00:51:48;;;;;;;10.40;5.40;;;;;;;6.78;84.83;98733.73;105995;1251;73773;-25
2023/11/08 00:54:15;;;;;;;8.10;4.60;;;;;;;6.78;83.88;98732.52;105968;1254;74277;-27
2023/11/08 00:56:43;;;;;;;14.30;5.80;;;;;;;6.56;84.11;98732.35;106015;1252;72621;-26
2023/11/08 00:59:09;;;;;;;12.70;6.70;;;;;;;6.26;84.92;98730.64;105970;1254;61465;-26
2023/11/08 01:01:36;;;;;;;10.50;5.40;;;;;;;5.98;86.00;98734.04;105885;1255;61116;-26
2023/11/08 01:04:06;;;;;;;10.10;4.20;;;;;;;5.76;87.50;98731.70;105856;1251;72826;-27
2023/11/08 01:06:34;;;;;;;11.10;5.70;;;;;;;6.20;86.93;98731.00;105755;1251;74963;-26
2023/11/08 01:09:01;;;;;;;9.80;4.70;;;;;;;6.67;85.27;98720.00;105893;1254;73070;-26
2023/11/08 01:11:28;;;;;;;13.10;5.90;;;;;;;6.72;84.26;98704.31;105912;1251;61137;-26
2023/11/08 01:13:55;;;;;;;9.40;5.70;;;;;;;6.52;83.89;98693.81;105645;1251;61181;-26
2023/11/08 01:16:22;;;;;;;11.50;5.70;;;;;;;6.30;84.14;98688.60;105939;1251;73598;-26
2023/11/08 01:18:49;;;;;;;8.50;5.70;;;;;;;6.03;84.42;98685.58;105582;1251;74238;-26
2023/11/08 01:21:16;;;;;;;8.00;4.20;;;;;;;5.79;85.15;98683.27;105970;1251;73247;-26
2023/11/08 01:23:43;;;;;;;12.00;4.60;;;;;;;6.10;85.83;98679.45;105895;1251;61171;-26
2023/11/08 01:26:10;;;;;;;6.80;4.30;;;;;;;6.60;83.84;98676.54;105984;1254;61185;-26
2023/11/08 01:28:37;;;;;;;11.20;5.20;;;;;;;6.62;83.31;98676.36;105864;1251;73794;-26
2023/11/08 01:31:04;;;;;;;11.60;5.80;;;;;;;6.43;83.57;98677.04;105948;1251;74614;-26
2023/11/08 01:33:31;;;;;;;9.80;5.60;;;;;;;6.16;84.00;98668.03;106044;1252;72777;-26
2023/11/08 01:35:59;;;;;;;7.80;5.40;;;;;;;5.89;84.56;98657.92;105839;1253;61143;-26
2023/11/08 01:38:26;;;;;;;7.80;4.00;;;;;;;5.65;85.14;98659.88;105928;1254;61207;-26
2023/11/08 01:40:53;;;;;;;9.90;5.10;;;;;;;5.95;85.12;98669.07;105938;1250;73776;-26
2023/11/08 01:43:30;;;;;;;7.30;4.20;;;;;;;6.41;83.95;98674.71;105944;1257;74380;-26
2023/11/08 01:46:06;;;;;;;12.30;5.00;;;;;;;6.45;83.52;98672.52;105735;1251;71612;-26
2023/11/08 01:48:33;;;;;;;10.10;4.80;;;;;;;6.28;83.81;98667.02;105858;1256;61200;-26
2023/11/08 01:51:04;;;;;;;12.70;5.20;;;;;;;6.05;84.08;98660.67;105921;1251;61136;-26
2023/11/08 01:53:32;;;;;;;9.80;5.50;;;;;;;5.77;83.96;98650.16;105755;1251;72876;-26
2023/11/08 01:55:59;;;;;;;7.60;5.00;;;;;;;5.47;84.13;98653.33;105818;1257;73058;-26
2023/11/08 01:58:27;;;;;;;6.40;3.50;;;;;;;5.26;84.77;98647.69;105770;1257;73100;-26
2023/11/08 02:00:54;;;;;;;12.50;5.00;;;;;;;5.69;85.75;98640.29;105759;1253;61058;-26
2023/11/08 02:03:21;;;;;;;12.80;4.70;;;;;;;6.27;84.29;98636.60;105851;1257;61269;-26
2023/11/08 02:05:49;;;;;;;9.80;4.30;;;;;;;6.36;83.71;98631.65;105881;1251;74361;-26
2023/11/08 02:08:17;;;;;;;8.70;4.80;;;;;;;6.25;83.90;98631.92;105646;1251;74653;-26
2023/11/08 02:10:44;;;;;;;15.60;6.80;;;;;;;6.04;84.59;98625.77;105933;1252;72552;-26
2023/11/08 02:13:12;;;;;;;12.70;6.20;;;;;;;5.80;85.24;98622.56;105712;1254;61109;-26
2023/11/08 02:15:40;;;;;;;9.50;6.20;;;;;;;5.62;85.65;98617.41;105936;1256;61150;-26
2023/11/08 02:18:07;;;;;;;9.90;4.60;;;;;;;5.45;87.40;98615.76;105759;1257;72370;-26
2023/11/08 02:20:34;;;;;;;8.90;4.20;;;;;;;5.77;87.63;98607.60;105905;1251;74217;-26
2023/11/08 02:23:01;;;;;;;14.40;7.30;;;;;;;6.33;83.55;98603.02;105929;1252;72503;-26
2023/11/08 02:25:31;;;;;;;12.50;7.00;;;;;;;6.41;81.66;98600.77;105804;1252;61176;-26
2023/11/08 02:27:58;;;;;;;14.40;6.20;;;;;;;6.04;81.94;98606.27;105710;1257;61153;-26
2023/11/08 02:30:25;;;;;;;8.90;6.10;;;;;;;5.67;83.35;98604.84;106009;1254;73784;-26
2023/11/08 02:32:52;;;;;;;14.20;7.90;;;;;;;5.42;84.43;98605.75;105921;1254;74363;-26
2023/11/08 02:35:19;;;;;;;15.90;7.90;;;;;;;5.18;85.56;98608.40;105955;1250;72488;-26
2023/11/08 02:37:46;;;;;;;13.20;5.90;;;;;;;5.02;86.32;98608.45;105899;1253;61119;-27
2023/11/08 02:40:13;;;;;;;8.30;4.00;;;;;;;5.44;87.05;98609.12;106005;1254;61163;-26
2023/11/08 02:42:44;;;;;;;13.10;6.00;;;;;;;5.98;84.31;98617.55;105916;1251;73843;-26
2023/11/08 02:45:11;;;;;;;8.90;5.50;;;;;;;6.09;83.45;98622.44;105760;1251;74166;-26
2023/11/08 02:47:39;;;;;;;12.90;5.90;;;;;;;5.99;83.32;98617.29;106029;1251;72707;-26
2023/11/08 02:50:06;;;;;;;30.40;13.30;;;;;;;5.80;84.24;98617.55;105699;1251;61137;-26
2023/11/08 02:52:33;;;;;;;33.20;15.00;;;;;;;5.56;85.21;98616.42;105710;1254;61159;-26
2023/11/08 02:55:01;;;;;;;25.50;13.30;;;;;;;5.36;84.71;98611.73;106041;1251;73840;-26
2023/11/08 02:57:28;;;;;;;18.90;8.20;;;;;;;5.19;85.34;98615.20;105906;1251;74117;-27
2023/11/08 02:59:55;;;;;;;18.80;9.70;;;;;;;5.67;85.76;98618.92;105924;1251;72431;-26
2023/11/08 03:02:22;;;;;;;12.40;7.70;;;;;;;6.26;83.62;98619.23;105978;1252;61048;-26
2023/11/08 03:04:49;;;;;;;14.00;7.30;;;;;;;6.33;82.33;98618.73;105639;1251;61317;-26
2023/11/08 03:07:16;;;;;;;15.70;7.70;;;;;;;6.17;82.61;98618.52;105978;1251;73906;-26
2023/11/08 03:09:43;;;;;;;10.70;6.80;;;;;;;5.93;83.07;98617.69;105991;1252;74216;-26
2023/11/08 03:12:10;;;;;;;14.40;8.10;;;;;;;5.68;83.24;98623.36;105945;1251;72626;-26
2023/11/08 03:14:36;;;;;;;18.00;9.90;;;;;;;5.41;84.00;98625.67;105958;1251;61046;-26
2023/11/08 03:17:03;;;;;;;10.80;6.00;;;;;;;5.17;85.08;98620.72;103469;1254;3383067;-26
2023/11/08 03:19:30;;;;;;;13.90;7.00;;;;;;;5.50;85.11;98614.89;105971;1251;61102;-26
2023/11/08 03:22:00;;;;;;;10.80;5.80;;;;;;;5.97;83.27;98607.64;105856;1251;74288;-26
2023/11/08 03:24:27;;;;;;;10.00;4.90;;;;;;;5.97;82.50;98596.02;105919;1252;72572;-26
2023/11/08 03:26:53;;;;;;;9.70;5.50;;;;;;;5.77;82.87;98599.29;105983;1254;61137;-26
2023/11/08 03:31:14;;;;;;;11.40;6.20;;;;;;;5.37;84.33;98596.67;102738;1289;600406;-25
2023/11/08 03:33:42;;;;;;;13.00;7.10;;;;;;;5.20;85.05;98594.04;105062;1264;61116;-25
2023/11/08 03:43:54;;;;;;;14.00;5.30;;;;;;;6.43;83.02;98590.59;102674;1292;600275;-25
2023/11/08 03:46:21;;;;;;;12.40;5.70;;;;;;;6.21;82.87;98595.77;104865;1268;61078;-25
2023/11/08 03:48:52;;;;;;;13.40;7.20;;;;;;;5.90;83.67;98591.38;104782;1271;61040;-26
2023/11/08 03:51:20;;;;;;;12.50;6.90;;;;;;;5.75;84.23;98592.72;104816;1271;72075;-26
2023/11/08 03:53:48;;;;;;;10.70;7.60;;;;;;;5.63;84.43;98594.23;104844;1271;73423;-26
2023/11/08 04:04:01;;;;;;;14.00;7.10;;;;;;;6.95;82.88;98594.65;102678;1293;600218;-25
2023/11/08 04:14:08;;;;;;;10.00;4.70;;;;;;;6.20;86.01;98591.41;102659;1290;600265;-26
2023/11/08 04:16:39;;;;;;;8.80;5.40;;;;;;;6.58;84.95;98582.83;105082;1267;61074;-27
2023/11/08 04:19:07;;;;;;;10.30;5.00;;;;;;;6.78;82.10;98587.47;104689;1275;61102;-26
2023/11/08 04:21:35;;;;;;;11.90;6.50;;;;;;;6.55;82.18;98583.04;104855;1270;71002;-27
2023/11/08 04:24:06;;;;;;;13.80;6.40;;;;;;;6.26;83.52;98579.75;104891;1269;73321;-26
2023/11/08 04:34:39;;;;;;;11.20;5.70;;;;;;;6.62;85.95;98565.34;102506;1293;615002;-26
2023/11/08 04:37:08;;;;;;;11.60;5.60;;;;;;;6.68;85.06;98572.43;105016;1268;61156;-26
2023/11/08 04:39:35;;;;;;;13.90;7.00;;;;;;;6.39;86.44;98576.09;105030;1269;61177;-26
2023/11/08 04:42:03;;;;;;;14.50;7.60;;;;;;;6.23;87.11;98572.73;104852;1267;72324;-26
2023/11/08 04:44:30;;;;;;;10.00;5.30;;;;;;;6.07;88.32;98586.47;104822;1267;74055;-26
2023/11/08 04:46:57;;;;;;;14.00;6.10;;;;;;;6.46;87.79;98576.44;102597;1267;3400641;-26
2023/11/08 04:49:23;;;;;;;14.90;7.50;;;;;;;6.91;85.81;98563.91;104871;1264;61037;-26
2023/11/08 04:51:51;;;;;;;13.40;6.10;;;;;;;6.91;85.37;98563.73;105213;1267;61066;-26
2023/11/08 04:54:17;;;;;;;14.90;7.00;;;;;;;6.80;85.32;98559.36;105258;1266;71979;-27
2023/11/08 04:56:45;;;;;;;17.70;6.60;;;;;;;6.63;85.50;98548.29;105208;1264;74466;-26
2023/11/08 04:59:12;;;;;;;15.50;7.60;;;;;;;6.48;85.63;98541.33;105229;1263;72633;-26
2023/11/08 05:01:41;;;;;;;8.60;5.10;;;;;;;6.34;86.24;98546.91;105203;1264;61632;-26
2023/11/08 05:04:08;;;;;;;14.70;5.70;;;;;;;6.84;86.38;98550.73;105113;1264;61201;-27
2023/11/08 05:06:35;;;;;;;13.80;6.80;;;;;;;7.39;84.32;98550.61;105268;1263;73087;-28
2023/11/08 05:09:02;;;;;;;13.20;6.30;;;;;;;7.51;83.91;98546.85;105222;1264;74308;-27
2023/11/08 05:11:29;;;;;;;11.90;5.90;;;;;;;7.37;83.81;98539.36;105158;1263;72545;-27
2023/11/08 05:13:56;;;;;;;10.80;6.10;;;;;;;7.12;83.86;98536.78;105120;1264;61066;-26
2023/11/08 05:16:23;;;;;;;17.60;6.90;;;;;;;6.81;84.47;98548.20;104952;1269;61132;-27
2023/11/08 05:18:53;;;;;;;12.70;4.90;;;;;;;6.53;86.04;98551.95;105193;1264;72860;-26
2023/11/08 05:21:21;;;;;;;19.00;7.20;;;;;;;6.92;86.65;98546.53;104974;1264;74318;-27
2023/11/08 05:23:48;;;;;;;20.80;7.20;;;;;;;7.42;84.38;98542.33;105178;1263;72334;-26
2023/11/08 05:26:16;;;;;;;14.80;7.20;;;;;;;7.51;83.64;98545.81;105221;1264;61129;-26
2023/11/08 05:28:42;;;;;;;13.70;7.10;;;;;;;7.35;83.64;98541.29;104963;1264;61065;-26
2023/11/08 05:31:09;;;;;;;20.80;7.30;;;;;;;7.13;84.28;98537.58;105159;1266;73101;-27
2023/11/08 05:33:39;;;;;;;19.70;7.80;;;;;;;6.92;84.61;98533.23;105157;1269;74455;-26
2023/11/08 05:36:07;;;;;;;20.90;8.40;;;;;;;6.76;85.43;98526.89;104941;1263;71202;-26
2023/11/08 05:38:34;;;;;;;18.20;6.30;;;;;;;6.64;86.10;98517.58;104835;1272;62080;-27
2023/11/08 05:41:00;;;;;;;12.30;5.40;;;;;;;7.13;86.36;98514.95;105258;1266;61124;-27
2023/11/08 05:43:27;;;;;;;12.20;6.10;;;;;;;7.72;84.15;98522.90;105149;1264;71784;-27
2023/11/08 05:45:55;;;;;;;13.70;6.50;;;;;;;7.65;83.49;98521.41;105111;1263;74363;-27
2023/11/08 05:48:23;;;;;;;17.70;7.40;;;;;;;7.50;84.03;98522.89;105025;1264;72588;-29
2023/11/08 05:50:50;;;;;;;18.30;7.10;;;;;;;7.28;84.40;98521.93;104987;1262;61277;-28
2023/11/08 05:53:17;;;;;;;12.70;7.30;;;;;;;7.03;85.00;98520.39;105010;1266;61173;-28
2023/11/08 05:55:44;;;;;;;23.30;6.30;;;;;;;6.83;85.70;98513.75;105158;1263;72999;-28
2023/11/08 05:58:10;;;;;;;15.70;6.70;;;;;;;7.23;86.59;98507.27;105857;1254;74222;-28
2023/11/08 06:00:41;;;;;;;16.10;6.80;;;;;;;7.82;84.82;98504.70;105664;1254;72521;-31
2023/11/08 06:03:09;;;;;;;13.20;5.70;;;;;;;7.93;83.72;98500.73;105928;1254;61388;-30
2023/11/08 06:05:36;;;;;;;15.80;7.00;;;;;;;7.80;84.06;98495.88;105883;1257;61143;-30
2023/11/08 06:08:04;;;;;;;12.60;7.50;;;;;;;7.62;84.50;98492.80;105886;1254;72931;-30
2023/11/08 06:10:32;;;;;;;13.90;7.10;;;;;;;7.36;85.37;98496.30;105710;1260;74380;-30
2023/11/08 06:12:59;;;;;;;19.20;5.40;;;;;;;7.09;87.64;98505.23;105692;1254;72531;-30
2023/11/08 06:15:26;;;;;;;15.70;7.50;;;;;;;7.47;87.00;98508.95;105813;1254;61150;-30
2023/11/08 06:17:53;;;;;;;10.50;5.90;;;;;;;7.86;85.73;98509.23;105830;1254;61099;-29
2023/11/08 06:20:21;;;;;;;15.60;7.40;;;;;;;7.82;84.75;98509.71;105853;1254;72137;-29
2023/11/08 06:22:49;;;;;;;13.40;7.40;;;;;;;7.57;85.27;98510.10;105841;1254;73601;-28
2023/11/08 06:25:16;;;;;;;13.30;8.00;;;;;;;7.29;86.32;98518.04;105823;1254;71486;-28
2023/11/08 06:27:43;;;;;;;13.10;6.40;;;;;;;7.07;87.42;98515.77;105783;1254;61343;-28
2023/11/08 06:30:11;;;;;;;14.30;6.80;;;;;;;7.37;87.81;98512.98;105883;1256;61051;-28
2023/11/08 06:32:38;;;;;;;19.50;7.70;;;;;;;7.71;87.55;98512.61;105668;1254;73006;-28
2023/11/08 06:35:06;;;;;;;12.50;7.80;;;;;;;7.70;87.93;98508.70;105862;1257;74745;-28
2023/11/08 06:37:33;;;;;;;14.60;7.40;;;;;;;7.58;88.64;98504.83;105764;1254;72660;-28
2023/11/08 06:39:59;;;;;;;14.40;7.70;;;;;;;7.47;88.79;98507.40;105859;1254;61150;-29
2023/11/08 06:42:26;;;;;;;12.20;5.40;;;;;;;7.34;89.11;98505.97;105877;1258;61034;-28
2023/11/08 06:44:53;;;;;;;19.40;9.20;;;;;;;7.74;89.06;98506.52;105805;1259;73074;-28
2023/11/08 06:47:20;;;;;;;15.70;8.70;;;;;;;8.23;87.37;98500.11;105852;1254;74604;-28
2023/11/08 06:49:47;;;;;;;14.10;8.60;;;;;;;8.30;86.88;98498.36;105841;1254;72684;-26
2023/11/08 06:52:14;;;;;;;16.70;8.40;;;;;;;8.24;87.02;98494.94;105838;1254;61122;-27
2023/11/08 06:54:42;;;;;;;17.50;9.20;;;;;;;8.07;86.83;98494.42;105578;1256;61109;-27
2023/11/08 06:57:09;;;;;;;14.70;8.80;;;;;;;7.86;86.98;98493.68;105631;1254;73536;-27
2023/11/08 06:59:36;;;;;;;12.50;6.80;;;;;;;7.63;87.95;98486.81;105708;1254;74305;-26
2023/11/08 07:02:06;;;;;;;11.90;6.80;;;;;;;8.00;87.74;98480.31;105817;1254;72082;-26
2023/11/08 07:04:33;;;;;;;16.00;7.10;;;;;;;8.39;86.34;98474.56;105373;1254;61106;-25
2023/11/08 07:07:01;;;;;;;13.10;7.80;;;;;;;8.34;85.76;98469.41;105827;1259;61105;-25
2023/11/08 07:09:28;;;;;;;24.80;11.30;;;;;;;8.10;86.38;98460.66;105748;1254;74420;-25
2023/11/08 07:11:56;;;;;;;13.40;8.60;;;;;;;7.83;87.62;98464.19;105861;1257;73600;-25
2023/11/08 07:14:23;;;;;;;16.90;7.70;;;;;;;7.58;88.72;98452.64;105724;1254;71609;-25
2023/11/08 07:16:50;;;;;;;11.60;7.30;;;;;;;7.83;88.85;98444.63;105285;1260;61526;-25
2023/11/08 07:19:17;;;;;;;12.20;7.90;;;;;;;8.09;88.05;98437.60;105785;1258;61173;-25
2023/11/08 07:21:44;;;;;;;14.40;9.20;;;;;;;8.01;88.31;98429.77;105759;1254;72081;-24
2023/11/08 07:24:12;;;;;;;16.50;9.70;;;;;;;7.83;89.44;98434.94;105847;1254;74313;-25
2023/11/08 07:26:38;;;;;;;13.70;8.50;;;;;;;7.68;90.78;98443.04;105799;1258;73024;-24
2023/11/08 07:29:07;;;;;;;13.30;7.70;;;;;;;7.83;92.50;98449.02;105836;1259;61127;-24
2023/11/08 07:31:36;;;;;;;13.80;9.20;;;;;;;8.27;90.24;98446.70;105898;1257;61249;-24
2023/11/08 07:34:05;;;;;;;16.70;11.00;;;;;;;8.08;90.92;98446.14;105703;1254;73338;-25
2023/11/08 07:36:32;;;;;;;11.80;8.40;;;;;;;7.90;93.45;98445.86;105640;1254;74768;-24
2023/11/08 07:39:04;;;;;;;16.70;8.90;;;;;;;7.97;94.16;98446.86;105841;1255;71785;-25
2023/11/08 07:41:32;;;;;;;11.20;5.60;;;;;;;8.00;94.25;98436.77;105879;1253;63320;-24
2023/11/08 07:44:02;;;;;;;8.30;4.40;;;;;;;8.61;93.59;98438.71;105702;1258;61164;-25
2023/11/08 07:46:30;;;;;;;12.10;5.00;;;;;;;9.28;90.66;98432.66;105673;1254;73449;-24
2023/11/08 07:48:57;;;;;;;9.20;4.30;;;;;;;9.50;89.10;98426.77;105678;1257;75819;-24
2023/11/08 07:51:28;;;;;;;6.30;3.50;;;;;;;9.43;89.99;98429.59;105660;1260;74035;-24
2023/11/08 07:53:59;;;;;;;9.80;4.30;;;;;;;9.24;92.14;98431.27;105797;1257;61064;-23
2023/11/08 07:56:26;;;;;;;6.10;3.10;;;;;;;9.20;92.94;98434.70;105716;1258;61131;-24
2023/11/08 07:58:53;;;;;;;6.70;3.50;;;;;;;9.82;91.21;98434.73;105721;1260;73378;-23
2023/11/08 08:01:19;;;;;;;8.80;5.40;;;;;;;10.37;87.89;98435.42;105847;1254;73427;-24
2023/11/08 08:03:48;;;;;;;9.50;5.70;;;;;;;10.37;86.08;98427.85;105739;1259;72448;-24
2023/11/08 08:06:15;;;;;;;8.30;4.70;;;;;;;10.23;86.93;98425.77;105712;1254;61071;-24
2023/11/08 08:08:46;;;;;;;39.80;19.50;;;;;;;10.08;87.25;98425.56;105872;1259;61562;-23
2023/11/08 08:11:12;;;;;;;83.80;40.30;;;;;;;9.84;87.28;98423.95;105883;1259;72489;-23
2023/11/08 08:13:40;;;;;;;62.20;29.10;;;;;;;9.67;88.01;98429.45;105872;1259;74675;-24
2023/11/08 08:16:07;;;;;;;54.70;25.50;;;;;;;10.14;88.54;98428.78;105852;1256;73071;-24
2023/11/08 08:18:36;;;;;;;37.70;19.60;;;;;;;10.68;85.28;98420.98;105730;1260;61705;-24
2023/11/08 08:21:04;;;;;;;34.90;19.40;;;;;;;10.69;84.41;98418.38;105598;1254;61128;-24
2023/11/08 08:23:31;;;;;;;160.50;77.10;;;;;;;10.37;86.20;98422.24;105642;1257;71397;-24
2023/11/08 08:26:00;;;;;;;27.30;16.60;;;;;;;9.88;90.26;98425.17;105672;1257;73453;-24
2023/11/08 08:28:27;;;;;;;22.50;12.70;;;;;;;9.48;92.00;98428.86;105783;1255;71554;-24
2023/11/08 08:30:54;;;;;;;16.60;10.80;;;;;;;9.68;91.84;98430.73;105756;1254;61074;-24
2023/11/08 08:33:21;;;;;;;21.30;13.80;;;;;;;9.89;91.06;98424.91;105761;1257;61102;-23
2023/11/08 08:35:50;;;;;;;22.60;12.90;;;;;;;9.93;90.41;98417.46;105864;1255;74275;-23
2023/11/08 08:38:17;;;;;;;24.30;13.60;;;;;;;9.47;92.18;98415.08;105877;1254;73538;-23
2023/11/08 08:40:44;;;;;;;18.00;10.30;;;;;;;9.09;94.31;98419.50;105905;1257;73770;-23
2023/11/08 08:43:11;;;;;;;18.50;10.40;;;;;;;9.32;93.68;98426.41;105851;1258;60977;-23
2023/11/08 08:45:38;;;;;;;21.70;10.40;;;;;;;9.92;90.17;98428.84;105700;1255;61144;-24
2023/11/08 08:48:06;;;;;;;14.40;8.80;;;;;;;9.78;88.89;98436.17;105651;1257;73357;-24
2023/11/08 08:50:36;;;;;;;17.80;9.40;;;;;;;9.52;89.18;98448.62;105804;1259;74916;-24
2023/11/08 08:53:03;;;;;;;16.70;11.50;;;;;;;9.06;91.43;98453.73;105834;1257;72988;-23
2023/11/08 08:55:30;;;;;;;21.20;12.40;;;;;;;8.95;93.17;98452.88;105829;1257;62306;-23
2023/11/08 08:57:58;;;;;;;22.60;11.70;;;;;;;9.30;92.00;98453.10;105707;1267;61763;-24
2023/11/08 09:00:25;;;;;;;14.30;9.30;;;;;;;9.35;90.13;98455.38;105813;1257;75238;-24
2023/11/08 09:02:53;;;;;;;14.60;8.90;;;;;;;8.83;92.78;98467.22;105829;1257;73958;-24
2023/11/08 09:05:23;;;;;;;11.50;7.40;;;;;;;8.57;94.20;98470.05;105640;1254;73852;-24
2023/11/08 09:07:51;;;;;;;12.90;7.80;;;;;;;8.22;95.03;98470.09;105757;1256;61538;-24
2023/11/08 09:10:18;;;;;;;8.40;5.70;;;;;;;8.30;95.33;98468.08;105836;1259;61151;-24
2023/11/08 09:12:45;;;;;;;11.00;6.10;;;;;;;8.49;93.55;98464.29;105883;1257;74413;-24
2023/11/08 09:15:13;;;;;;;9.90;6.30;;;;;;;8.64;93.48;98458.21;105624;1260;74893;-24
2023/11/08 09:17:40;;;;;;;7.40;4.70;;;;;;;8.63;93.10;98453.95;105601;1268;72892;-24
2023/11/08 09:20:08;;;;;;;11.70;6.60;;;;;;;8.33;95.44;98451.58;105522;1254;61483;-24
2023/11/08 09:22:36;;;;;;;11.30;5.80;;;;;;;8.16;97.47;98451.70;105483;1261;61202;-24
2023/11/08 09:25:07;;;;;;;10.70;6.00;;;;;;;8.51;96.65;98443.55;105819;1254;74014;-24
2023/11/08 09:27:37;;;;;;;9.60;6.00;;;;;;;8.36;96.70;98431.63;105700;1254;75846;-24
2023/11/08 09:30:08;;;;;;;15.90;8.60;;;;;;;8.47;98.23;98421.87;105621;1262;73056;-25
2023/11/08 09:32:35;;;;;;;9.50;6.00;;;;;;;8.14;99.34;98418.86;105813;1257;61667;-24
2023/11/08 09:35:03;;;;;;;18.10;4.80;;;;;;;8.21;99.51;98425.88;105805;1259;61083;-24
2023/11/08 09:37:30;;;;;;;12.80;5.80;;;;;;;8.52;98.07;98425.78;105760;1260;73514;-25
2023/11/08 09:39:58;;;;;;;10.20;6.90;;;;;;;8.49;98.02;98422.61;105832;1257;75657;-24
2023/11/08 09:42:29;;;;;;;11.90;5.80;;;;;;;8.10;99.56;98421.22;105673;1254;71933;-24
2023/11/08 09:44:58;;;;;;;11.00;5.50;;;;;;;8.09;99.48;98424.09;105627;1257;61958;-24
2023/11/08 09:47:25;;;;;;;6.30;4.10;;;;;;;8.18;98.37;98418.83;105548;1260;61237;-24
2023/11/08 09:49:52;;;;;;;7.50;5.30;;;;;;;8.26;97.35;98416.99;105687;1258;73103;-24
2023/11/08 09:52:22;;;;;;;10.10;6.10;;;;;;;8.51;95.26;98414.66;105381;1254;75623;-24
2023/11/08 09:54:49;;;;;;;8.80;5.40;;;;;;;8.26;97.30;98425.66;105609;1260;73877;-23
2023/11/08 09:57:16;;;;;;;8.30;5.50;;;;;;;8.23;97.67;98424.75;105700;1254;61130;-23
2023/11/08 09:59:43;;;;;;;7.90;5.30;;;;;;;8.42;96.79;98420.08;105673;1255;61163;-23
2023/11/08 10:02:11;;;;;;;7.90;5.70;;;;;;;8.46;94.93;98416.27;105736;1257;74276;-24
2023/11/08 10:04:39;;;;;;;8.80;6.70;;;;;;;8.22;95.81;98414.04;105654;1260;74610;-24
2023/11/08 10:07:14;;;;;;;8.40;5.40;;;;;;;8.04;97.07;98414.82;105843;1258;73546;-23
2023/11/08 10:09:41;;;;;;;7.90;4.50;;;;;;;8.10;97.34;98412.95;105589;1259;61595;-23
2023/11/08 10:12:08;;;;;;;7.60;4.50;;;;;;;8.81;95.16;98410.27;105708;1253;61132;-24
2023/11/08 10:14:40;;;;;;;6.70;4.40;;;;;;;9.23;90.81;98400.63;105707;1254;73699;-24
2023/11/08 10:17:08;;;;;;;5.10;4.10;;;;;;;9.20;89.02;98396.41;105747;1255;73817;-25
2023/11/08 10:19:55;;;;;;;5.80;4.30;;;;;;;9.05;89.50;98390.59;105786;1259;73185;-25
2023/11/08 10:22:26;;;;;;;6.10;4.40;;;;;;;8.88;90.03;98386.33;105722;1254;61097;-24
2023/11/08 10:24:55;;;;;;;5.30;3.40;;;;;;;8.75;90.81;98379.74;105699;1258;61103;-25
2023/11/08 10:27:23;;;;;;;5.40;3.70;;;;;;;9.22;90.57;98371.83;105747;1254;73745;-24
2023/11/08 10:29:50;;;;;;;6.70;5.00;;;;;;;9.72;87.88;98365.91;105712;1254;73470;-24
2023/11/08 10:32:22;;;;;;;5.10;3.90;;;;;;;9.74;86.69;98361.64;105749;1259;71349;-24
2023/11/08 10:34:49;;;;;;;7.40;5.70;;;;;;;9.48;87.02;98351.91;105643;1259;61906;-24
2023/11/08 10:37:22;;;;;;;9.50;6.00;;;;;;;9.23;88.44;98344.25;105645;1258;61139;-23
2023/11/08 10:39:48;;;;;;;16.40;7.30;;;;;;;9.00;89.83;98339.57;105619;1259;73051;-23
2023/11/08 10:42:15;;;;;;;8.80;5.10;;;;;;;8.80;91.28;98338.90;105862;1257;75825;-23
2023/11/08 10:44:42;;;;;;;8.10;5.20;;;;;;;9.16;90.81;98338.08;105701;1257;72845;-23
2023/11/08 10:47:11;;;;;;;16.10;10.80;;;;;;;9.63;87.73;98332.39;105575;1255;61052;-23
2023/11/08 10:49:38;;;;;;;30.10;22.90;;;;;;;9.80;87.11;98328.68;105718;1259;61568;-23
2023/11/08 10:52:10;;;;;;;32.70;24.70;;;;;;;9.78;87.42;98330.43;105657;1260;72926;-24
2023/11/08 10:54:39;;;;;;;17.40;13.30;;;;;;;9.64;87.85;98325.02;105711;1254;74633;-25
2023/11/08 10:57:09;;;;;;;16.10;10.50;;;;;;;9.52;88.07;98324.73;105835;1254;72536;-24
2023/11/08 10:59:36;;;;;;;8.30;5.80;;;;;;;9.41;88.14;98324.27;105879;1257;61121;-24
2023/11/08 11:02:09;;;;;;;7.60;5.30;;;;;;;9.88;88.07;98321.36;105689;1259;61678;-24
2023/11/08 11:04:36;;;;;;;8.30;5.60;;;;;;;10.43;86.25;98318.84;105667;1255;73399;-24
2023/11/08 11:07:05;;;;;;;9.30;6.10;;;;;;;10.40;83.58;98316.87;105655;1259;76020;-25
2023/11/08 11:09:36;;;;;;;10.40;7.40;;;;;;;10.19;84.62;98316.98;105711;1254;71964;-24
2023/11/08 11:12:08;;;;;;;58.40;25.80;;;;;;;10.00;85.83;98325.33;105851;1254;61109;-25
2023/11/08 11:14:37;;;;;;;40.40;19.20;;;;;;;9.63;87.56;98331.67;105856;1254;61209;-24
2023/11/08 11:17:07;;;;;;;11.60;7.40;;;;;;;9.29;90.14;98335.04;105675;1260;73859;-24
2023/11/08 11:19:34;;;;;;;7.90;5.10;;;;;;;9.54;89.62;98334.89;105686;1259;74784;-25
2023/11/08 11:22:05;;;;;;;6.40;4.10;;;;;;;9.88;87.53;98325.63;105689;1254;73773;-24
2023/11/08 11:24:32;;;;;;;6.10;3.70;;;;;;;9.84;87.45;98325.55;105638;1270;61163;-24
2023/11/08 11:27:00;;;;;;;6.80;3.70;;;;;;;9.62;88.47;98322.29;105879;1254;61109;-24
2023/11/08 11:29:28;;;;;;;6.70;4.00;;;;;;;9.40;89.33;98319.19;105698;1260;75327;-24
2023/11/08 11:31:55;;;;;;;6.60;4.00;;;;;;;9.27;90.74;98318.41;105827;1254;73874;-24
2023/11/08 11:34:26;;;;;;;5.00;3.50;;;;;;;9.77;90.12;98312.75;105878;1256;71622;-24
2023/11/08 11:37:13;;;;;;;9.10;6.60;;;;;;;10.33;86.90;98308.47;105556;1254;61152;-24
2023/11/08 11:40:08;;;;;;;6.20;4.30;;;;;;;10.39;85.64;98309.09;105559;1259;61151;-24
2023/11/08 11:42:35;;;;;;;6.40;3.50;;;;;;;10.10;86.53;98315.34;105622;1260;75350;-24
2023/11/08 11:45:08;;;;;;;4.60;3.70;;;;;;;9.78;89.59;98319.65;105875;1254;75690;-24
2023/11/08 11:47:36;;;;;;;4.30;2.90;;;;;;;9.49;90.99;98323.23;105688;1259;74198;-24
2023/11/08 11:50:05;;;;;;;4.70;2.80;;;;;;;9.78;90.65;98319.79;105730;1254;61086;-24
2023/11/08 11:52:33;;;;;;;4.90;3.70;;;;;;;10.16;88.10;98316.02;105710;1260;61189;-24
2023/11/08 11:55:01;;;;;;;4.30;3.30;;;;;;;10.12;87.56;98320.79;105518;1254;74748;-25
2023/11/08 11:57:29;;;;;;;6.90;3.70;;;;;;;9.95;87.83;98316.08;105735;1254;74792;-24
2023/11/08 12:00:01;;;;;;;5.10;3.80;;;;;;;9.73;89.13;98323.74;105709;1254;73296;-24
2023/11/08 12:02:34;;;;;;;3.40;2.50;;;;;;;9.56;90.45;98323.83;105683;1261;61640;-24